createdAt,value
2022-10-09T00:01:35.845Z,99731.75
2022-10-09T00:04:05.577Z,99728.16
2022-10-09T00:06:36.139Z,99730.84
2022-10-09T00:09:06.198Z,99725.56
2022-10-09T00:11:35.640Z,99723.81
2022-10-09T00:14:05.471Z,99722.13
2022-10-09T00:16:34.050Z,99722.22
2022-10-09T00:19:02.797Z,99728.22
2022-10-09T00:21:33.928Z,99722.94
2022-10-09T00:24:04.734Z,99720.38
2022-10-09T00:26:34.861Z,99715.00
2022-10-09T00:29:03.729Z,99722.16
2022-10-09T00:31:32.606Z,99715.72
2022-10-09T00:34:01.188Z,99718.47
2022-10-09T00:36:29.627Z,99725.34
2022-10-09T00:38:58.770Z,99723.44
2022-10-09T00:41:29.718Z,99719.50
2022-10-09T00:44:01.567Z,99718.16
2022-10-09T00:46:36.331Z,99705.69
2022-10-09T00:49:20.651Z,99713.50
2022-10-09T00:51:51.302Z,99711.91
2022-10-09T00:54:23.505Z,99712.69
2022-10-09T00:56:52.812Z,99706.56
2022-10-09T00:59:23.329Z,99703.81
2022-10-09T01:01:51.793Z,99701.94
2022-10-09T01:04:20.670Z,99697.47
2022-10-09T01:07:02.019Z,99695.66
2022-10-09T01:09:41.065Z,99693.03
2022-10-09T01:12:20.455Z,99690.25
2022-10-09T01:15:01.355Z,99698.00
2022-10-09T01:17:36.820Z,99693.78
2022-10-09T01:20:26.209Z,99693.50
2022-10-09T01:23:12.297Z,99687.38
2022-10-09T01:25:55.004Z,99690.09
2022-10-09T01:28:28.966Z,99679.78
2022-10-09T01:31:01.104Z,99683.19
2022-10-09T01:33:31.564Z,99685.03
2022-10-09T01:36:01.887Z,99686.69
2022-10-09T01:38:31.860Z,99693.72
2022-10-09T01:41:01.760Z,99686.66
2022-10-09T01:43:31.507Z,99692.84
2022-10-09T01:46:19.708Z,99690.81
2022-10-09T01:48:55.427Z,99697.31
2022-10-09T01:51:29.100Z,99697.47
2022-10-09T01:54:03.333Z,99701.00
2022-10-09T01:56:39.064Z,99701.19
2022-10-09T01:59:16.015Z,99703.09
2022-10-09T02:01:46.617Z,99701.44
2022-10-09T02:04:18.080Z,99697.28
2022-10-09T02:06:48.222Z,99700.09
2022-10-09T02:09:19.193Z,99707.03
2022-10-09T02:11:54.315Z,99707.72
2022-10-09T02:14:25.624Z,99710.63
2022-10-09T02:17:03.569Z,99719.19
2022-10-09T02:19:38.293Z,99724.16
2022-10-09T02:22:14.641Z,99721.47
2022-10-09T02:24:44.248Z,99728.69
2022-10-09T02:27:14.425Z,99725.75
2022-10-09T02:29:46.266Z,99733.56
2022-10-09T02:32:15.438Z,99730.88
2022-10-09T02:34:44.125Z,99730.72
2022-10-09T02:37:12.570Z,99728.03
2022-10-09T02:39:42.091Z,99727.78
2022-10-09T02:42:10.657Z,99731.19
2022-10-09T02:44:39.097Z,99738.22
2022-10-09T02:47:09.375Z,99735.63
2022-10-09T02:49:37.785Z,99738.28
2022-10-09T02:52:07.020Z,99738.22
2022-10-09T02:54:38.513Z,99733.81
2022-10-09T02:57:06.950Z,99742.66
2022-10-09T02:59:35.790Z,99747.13
2022-10-09T03:02:04.438Z,99750.78
2022-10-09T03:04:34.322Z,99752.56
2022-10-09T03:07:03.216Z,99749.91
2022-10-09T03:09:33.814Z,99751.72
2022-10-09T03:12:02.410Z,99752.63
2022-10-09T03:14:30.843Z,99750.00
2022-10-09T03:16:59.423Z,99764.13
2022-10-09T03:19:27.852Z,99764.38
2022-10-09T03:21:57.833Z,99769.59
2022-10-09T03:24:26.432Z,99760.94
2022-10-09T03:26:54.821Z,99760.09
2022-10-09T03:29:23.822Z,99761.81
2022-10-09T03:31:53.465Z,99765.31
2022-10-09T03:34:22.171Z,99766.22
2022-10-09T03:36:50.683Z,99767.91
2022-10-09T03:39:20.708Z,99768.72
2022-10-09T03:41:49.002Z,99774.81
2022-10-09T03:44:17.418Z,99769.44
2022-10-09T03:46:46.752Z,99776.47
2022-10-09T03:49:15.408Z,99762.25
2022-10-09T03:51:43.877Z,99772.88
2022-10-09T03:54:12.964Z,99779.84
2022-10-09T03:56:42.707Z,99771.91
2022-10-09T03:59:11.215Z,99774.53
2022-10-09T04:01:39.913Z,99780.69
2022-10-09T04:04:08.249Z,99775.34
2022-10-09T04:06:36.633Z,99771.91
2022-10-09T04:09:05.937Z,99785.22
2022-10-09T04:11:34.555Z,99781.81
2022-10-09T04:14:05.052Z,99780.88
2022-10-09T04:16:34.333Z,99787.13
2022-10-09T04:19:03.247Z,99787.13
2022-10-09T04:21:32.734Z,99782.84
2022-10-09T04:24:03.458Z,99785.53
2022-10-09T04:26:31.842Z,99790.09
2022-10-09T04:29:00.616Z,99792.75
2022-10-09T04:31:30.946Z,99792.88
2022-10-09T04:33:59.406Z,99798.47
2022-10-09T04:36:27.824Z,99796.59
2022-10-09T04:38:56.403Z,99800.22
2022-10-09T04:41:24.927Z,99800.72
2022-10-09T04:43:56.115Z,99807.72
2022-10-09T04:46:25.009Z,99810.28
2022-10-09T04:48:55.376Z,99807.78
2022-10-09T04:51:23.756Z,99799.72
2022-10-09T04:53:52.356Z,99798.75
2022-10-09T04:56:21.906Z,99805.75
2022-10-09T04:58:51.001Z,99811.56
2022-10-09T05:01:22.328Z,99799.91
2022-10-09T05:03:51.440Z,99808.53
2022-10-09T05:06:22.412Z,99809.28
2022-10-09T05:08:51.489Z,99818.16
2022-10-09T05:11:22.323Z,99821.88
2022-10-09T05:13:52.354Z,99814.59
2022-10-09T05:16:23.659Z,99831.94
2022-10-09T05:18:55.084Z,99835.00
2022-10-09T05:21:27.521Z,99832.13
2022-10-09T05:23:57.148Z,99839.84
2022-10-09T05:26:28.448Z,99844.53
2022-10-09T05:28:56.922Z,99846.84
2022-10-09T05:31:27.131Z,99834.88
2022-10-09T05:33:57.091Z,99848.78
2022-10-09T05:36:27.136Z,99848.47
2022-10-09T05:38:55.925Z,99854.31
2022-10-09T05:41:24.372Z,99855.78
2022-10-09T05:43:53.159Z,99860.09
2022-10-09T05:46:24.254Z,99865.19
2022-10-09T05:48:54.806Z,99857.88
2022-10-09T05:51:27.164Z,99855.09
2022-10-09T05:53:56.674Z,99860.97
2022-10-09T05:56:28.049Z,99875.66
2022-10-09T05:58:58.636Z,99868.56
2022-10-09T06:01:29.304Z,99865.84
2022-10-09T06:03:59.289Z,99887.31
2022-10-09T06:06:32.081Z,99886.41
2022-10-09T06:09:01.136Z,99886.25
2022-10-09T06:11:32.269Z,99895.63
2022-10-09T06:14:02.389Z,99899.47
2022-10-09T06:16:34.033Z,99900.00
2022-10-09T06:19:03.632Z,99899.81
2022-10-09T06:21:34.125Z,99900.13
2022-10-09T06:24:28.215Z,99904.53
2022-10-09T06:27:00.446Z,99908.91
2022-10-09T06:29:30.125Z,99918.31
2022-10-09T06:31:58.811Z,99917.47
2022-10-09T06:34:28.075Z,99917.00
2022-10-09T06:36:58.068Z,99912.84
2022-10-09T06:39:27.307Z,99920.31
2022-10-09T06:41:55.650Z,99918.97
2022-10-09T06:44:44.529Z,99919.91
2022-10-09T06:47:13.125Z,99919.22
2022-10-09T06:49:41.955Z,99927.22
2022-10-09T06:52:11.967Z,99926.38
2022-10-09T06:54:40.372Z,99933.06
2022-10-09T06:57:09.143Z,99942.34
2022-10-09T06:59:37.764Z,99939.81
2022-10-09T07:02:06.232Z,99937.97
2022-10-09T07:04:34.729Z,99938.59
2022-10-09T07:07:03.723Z,99938.75
2022-10-09T07:09:33.459Z,99948.28
2022-10-09T07:12:01.921Z,99944.69
2022-10-09T07:14:30.801Z,99954.13
2022-10-09T07:16:59.209Z,99952.66
2022-10-09T07:19:27.695Z,99952.09
2022-10-09T07:21:56.308Z,99957.28
2022-10-09T07:24:25.477Z,99963.97
2022-10-09T07:26:55.636Z,99962.09
2022-10-09T07:29:24.425Z,99965.00
2022-10-09T07:31:53.150Z,99969.28
2022-10-09T07:34:21.572Z,99970.56
2022-10-09T07:36:50.131Z,99975.19
2022-10-09T07:39:20.211Z,99963.66
2022-10-09T07:41:51.576Z,99968.03
2022-10-09T07:44:21.578Z,99962.22
2022-10-09T07:46:51.095Z,99960.13
2022-10-09T07:49:19.675Z,99970.63
2022-10-09T07:51:48.240Z,99971.09
2022-10-09T07:54:16.712Z,99967.34
2022-10-09T07:56:45.081Z,99965.09
2022-10-09T07:59:17.440Z,99966.00
2022-10-09T08:01:47.622Z,99965.09
2022-10-09T08:04:16.748Z,99966.59
2022-10-09T08:06:45.492Z,99956.84
2022-10-09T08:09:14.130Z,99958.84
2022-10-09T08:11:42.979Z,99954.19
2022-10-09T08:14:18.233Z,99951.78
2022-10-09T08:16:49.515Z,99960.06
2022-10-09T08:19:18.039Z,99951.22
2022-10-09T08:21:49.602Z,99950.03
2022-10-09T08:24:20.745Z,99965.88
2022-10-09T08:26:49.348Z,99972.03
2022-10-09T08:29:20.497Z,99967.09
2022-10-09T08:31:52.304Z,99974.22
2022-10-09T08:34:20.849Z,99967.47
2022-10-09T08:36:51.807Z,99963.34
2022-10-09T08:39:20.205Z,99965.19
2022-10-09T08:41:50.609Z,99964.78
2022-10-09T08:44:23.936Z,99958.81
2022-10-09T08:47:04.625Z,99968.72
2022-10-09T08:49:43.626Z,99962.53
2022-10-09T08:52:22.309Z,99975.34
2022-10-09T08:54:52.082Z,99981.06
2022-10-09T08:57:23.890Z,99978.63
2022-10-09T08:59:52.956Z,99987.22
2022-10-09T09:02:36.813Z,99991.88
2022-10-09T09:05:20.976Z,99989.50
2022-10-09T09:07:58.320Z,99998.38
2022-10-09T09:10:38.521Z,99988.28
2022-10-09T09:13:21.279Z,99994.00
2022-10-09T09:15:59.675Z,100001.47
2022-10-09T09:18:42.642Z,99992.56
2022-10-09T09:21:18.446Z,99984.84
2022-10-09T09:23:49.328Z,99989.50
2022-10-09T09:26:21.332Z,99995.66
2022-10-09T09:28:54.479Z,99993.66
2022-10-09T09:31:27.280Z,100002.31
2022-10-09T09:34:05.677Z,99996.16
2022-10-09T09:36:40.229Z,99995.25
2022-10-09T09:42:07.215Z,99995.09
2022-10-09T09:44:40.756Z,99996.06
2022-10-09T09:47:16.658Z,100003.72
2022-10-09T09:49:57.724Z,99999.59
2022-10-09T09:52:29.965Z,99998.22
2022-10-09T09:55:00.247Z,99995.09
2022-10-09T09:57:37.117Z,99994.66
2022-10-09T10:00:20.892Z,99999.34
2022-10-09T10:02:50.768Z,99998.66
2022-10-09T10:05:24.325Z,99998.91
2022-10-09T10:07:57.696Z,100001.03
2022-10-09T10:10:28.377Z,100002.25
2022-10-09T10:13:00.298Z,100009.28
2022-10-09T10:15:31.510Z,100005.66
2022-10-09T10:18:03.797Z,100011.13
2022-10-09T10:20:43.416Z,100013.88
2022-10-09T10:23:24.286Z,100022.72
2022-10-09T10:25:55.500Z,100025.38
2022-10-09T10:28:34.105Z,100021.25
2022-10-09T10:31:07.182Z,100020.66
2022-10-09T10:33:38.636Z,100020.59
2022-10-09T10:36:11.450Z,100032.16
2022-10-09T10:38:48.238Z,100029.50
2022-10-09T10:41:23.634Z,100016.63
2022-10-09T10:44:00.208Z,100016.63
2022-10-09T10:46:33.257Z,100005.19
2022-10-09T10:49:02.074Z,100000.31
2022-10-09T10:51:52.003Z,100003.78
2022-10-09T10:54:35.782Z,99997.38
2022-10-09T10:57:16.931Z,99990.38
2022-10-09T10:59:55.128Z,99988.75
2022-10-09T11:03:02.889Z,99999.38
2022-10-09T11:05:56.798Z,99996.69
2022-10-09T11:08:58.946Z,99991.63
2022-10-09T11:11:37.324Z,99992.81
2022-10-09T11:14:20.471Z,99992.06
2022-10-09T11:17:02.490Z,99991.47
2022-10-09T11:19:53.458Z,99989.25
2022-10-09T11:22:42.275Z,99984.41
2022-10-09T11:25:27.525Z,99981.34
2022-10-09T11:28:03.326Z,99975.34
2022-10-09T11:30:38.761Z,99967.59
2022-10-09T11:33:19.351Z,99979.38
2022-10-09T11:35:53.885Z,99980.66
2022-10-09T11:38:29.702Z,99976.28
2022-10-09T11:41:03.892Z,99980.00
2022-10-09T11:43:55.732Z,99972.59
2022-10-09T11:46:36.355Z,99978.69
2022-10-09T11:49:14.299Z,99969.34
2022-10-09T11:51:49.010Z,99971.75
2022-10-09T11:54:20.909Z,99971.75
2022-10-09T11:57:00.320Z,99968.22
2022-10-09T11:59:31.550Z,99973.31
2022-10-09T12:02:02.787Z,99977.69
2022-10-09T12:04:53.965Z,99981.13
2022-10-09T12:07:32.550Z,99976.25
2022-10-09T12:10:08.048Z,99983.66
2022-10-09T12:12:38.933Z,99977.44
2022-10-09T12:15:39.280Z,99968.44
2022-10-09T12:18:24.476Z,99978.09
2022-10-09T12:20:55.732Z,99981.63
2022-10-09T12:23:29.059Z,99971.91
2022-10-09T12:25:58.835Z,99976.56
2022-10-09T12:28:39.593Z,99979.38
2022-10-09T12:31:18.542Z,99978.19
2022-10-09T12:33:53.358Z,99981.25
2022-10-09T12:36:26.007Z,99978.63
2022-10-09T12:38:54.881Z,99971.03
2022-10-09T12:41:28.761Z,99970.13
2022-10-09T12:44:00.128Z,99966.34
2022-10-09T12:46:35.087Z,99972.56
2022-10-09T12:49:08.855Z,99976.06
2022-10-09T12:51:38.285Z,99984.19
2022-10-09T12:54:10.790Z,99978.84
2022-10-09T12:56:41.053Z,99979.03
2022-10-09T12:59:14.280Z,99984.41
2022-10-09T13:01:45.466Z,99983.91
2022-10-09T13:04:30.150Z,99976.84
2022-10-09T13:07:01.020Z,99978.41
2022-10-09T13:09:37.065Z,99974.16
2022-10-09T13:12:09.893Z,99970.75
2022-10-09T13:14:46.369Z,99973.88
2022-10-09T13:17:25.821Z,99963.03
2022-10-09T13:19:58.116Z,99972.81
2022-10-09T13:22:30.021Z,99971.16
2022-10-09T13:25:01.022Z,99960.03
2022-10-09T13:27:34.981Z,99957.41
2022-10-09T13:30:05.653Z,99952.97
2022-10-09T13:32:34.614Z,99945.91
2022-10-09T13:35:03.924Z,99953.63
2022-10-09T13:37:32.747Z,99942.31
2022-10-09T13:40:02.126Z,99949.16
2022-10-09T13:42:36.958Z,99942.28
2022-10-09T13:45:08.595Z,99931.34
2022-10-09T13:47:37.572Z,99939.63
2022-10-09T13:50:07.046Z,99939.50
2022-10-09T13:52:36.292Z,99939.84
2022-10-09T13:55:06.653Z,99935.53
2022-10-09T13:57:35.524Z,99943.72
2022-10-09T14:00:04.791Z,99937.25
2022-10-09T14:02:42.413Z,99937.25
2022-10-09T14:05:11.582Z,99942.78
2022-10-09T14:07:41.235Z,99946.41
2022-10-09T14:10:11.397Z,99932.19
2022-10-09T14:12:40.419Z,99936.06
2022-10-09T14:15:09.653Z,99939.16
2022-10-09T14:17:38.808Z,99931.91
2022-10-09T14:20:10.910Z,99934.25
2022-10-09T14:22:41.488Z,99930.78
2022-10-09T14:25:11.372Z,99939.25
2022-10-09T14:27:42.732Z,99930.28
2022-10-09T14:30:18.009Z,99924.22
2022-10-09T14:32:48.245Z,99940.28
2022-10-09T14:35:22.015Z,99937.78
2022-10-09T14:37:51.395Z,99937.06
2022-10-09T14:40:20.934Z,99941.53
2022-10-09T14:42:51.919Z,99944.75
2022-10-09T14:45:21.100Z,99947.75
2022-10-09T14:47:50.015Z,99947.34
2022-10-09T14:50:18.528Z,99935.19
2022-10-09T14:52:49.366Z,99941.97
2022-10-09T14:55:20.409Z,99938.75
2022-10-09T14:57:49.266Z,99936.94
2022-10-09T15:00:18.748Z,99927.22
2022-10-09T15:02:47.754Z,99932.16
2022-10-09T15:05:17.433Z,99930.59
2022-10-09T15:07:46.249Z,99937.00
2022-10-09T15:10:17.130Z,99936.38
2022-10-09T15:12:46.129Z,99936.97
2022-10-09T15:15:15.248Z,99934.22
2022-10-09T15:17:43.841Z,99934.31
2022-10-09T15:20:12.623Z,99938.75
2022-10-09T15:22:41.660Z,99947.34
2022-10-09T15:25:11.182Z,99941.81
2022-10-09T15:27:41.453Z,99936.09
2022-10-09T15:30:12.337Z,99939.63
2022-10-09T15:32:42.277Z,99941.69
2022-10-09T15:35:12.136Z,99944.44
2022-10-09T15:37:40.847Z,99944.78
2022-10-09T15:40:11.285Z,99947.44
2022-10-09T15:42:42.598Z,99942.47
2022-10-09T15:45:13.141Z,99945.63
2022-10-09T15:47:50.762Z,99936.50
2022-10-09T15:50:19.867Z,99944.31
2022-10-09T15:52:48.787Z,99945.94
2022-10-09T15:55:17.546Z,99944.19
2022-10-09T15:57:47.523Z,99943.19
2022-10-09T16:00:16.399Z,99952.13
2022-10-09T16:02:45.568Z,99955.44
2022-10-09T16:05:14.405Z,99957.41
2022-10-09T16:07:42.888Z,99958.22
2022-10-09T16:10:11.733Z,99953.78
2022-10-09T16:12:40.236Z,99962.22
2022-10-09T16:15:11.379Z,99965.94
2022-10-09T16:17:39.871Z,99965.69
2022-10-09T16:20:08.934Z,99968.63
2022-10-09T16:22:37.766Z,99960.22
2022-10-09T16:25:07.355Z,99967.41
2022-10-09T16:27:35.838Z,99969.78
2022-10-09T16:30:05.185Z,99968.06
2022-10-09T16:32:35.531Z,99972.19
2022-10-09T16:35:03.961Z,99978.78
2022-10-09T16:37:32.642Z,99975.81
2022-10-09T16:40:01.133Z,99974.72
2022-10-09T16:42:29.585Z,99978.72
2022-10-09T16:44:58.706Z,99979.28
2022-10-09T16:47:28.139Z,99975.19
2022-10-09T16:49:58.803Z,99972.00
2022-10-09T16:52:27.307Z,99977.91
2022-10-09T16:55:00.156Z,99978.34
2022-10-09T16:57:29.950Z,99980.69
2022-10-09T16:59:59.140Z,99988.34
2022-10-09T17:02:28.715Z,99979.38
2022-10-09T17:04:58.701Z,99981.63
2022-10-09T17:07:27.472Z,99980.81
2022-10-09T17:09:56.326Z,99973.84
2022-10-09T17:12:25.140Z,99978.16
2022-10-09T17:14:56.841Z,99973.41
2022-10-09T17:17:25.845Z,99975.97
2022-10-09T17:19:54.265Z,99977.91
2022-10-09T17:22:24.436Z,99976.28
2022-10-09T17:24:53.190Z,99974.25
2022-10-09T17:27:21.789Z,99972.22
2022-10-09T17:29:50.353Z,99980.81
2022-10-09T17:32:18.779Z,99983.28
2022-10-09T17:34:47.952Z,99984.81
2022-10-09T17:37:16.442Z,99994.53
2022-10-09T17:39:51.913Z,99985.47
2022-10-09T17:42:21.981Z,99989.09
2022-10-09T17:44:51.061Z,99993.41
2022-10-09T17:47:20.288Z,100000.50
2022-10-09T17:49:49.279Z,99997.91
2022-10-09T17:52:18.005Z,99995.19
2022-10-09T17:54:48.021Z,99994.47
2022-10-09T17:57:16.913Z,99988.53
2022-10-09T17:59:46.392Z,99995.91
2022-10-09T18:02:35.150Z,100003.25
2022-10-09T18:05:03.892Z,100000.09
2022-10-09T18:07:32.372Z,100006.41
2022-10-09T18:10:02.549Z,100012.56
2022-10-09T18:12:31.458Z,100011.72
2022-10-09T18:15:00.965Z,100007.69
2022-10-09T18:17:33.036Z,100023.09
2022-10-09T18:20:01.557Z,100020.47
2022-10-09T18:22:29.973Z,100017.81
2022-10-09T18:24:59.156Z,100023.03
2022-10-09T18:27:29.114Z,100022.13
2022-10-09T18:29:58.109Z,100020.38
2022-10-09T18:32:27.612Z,100022.94
2022-10-09T18:34:56.070Z,100031.78
2022-10-09T18:37:24.897Z,100033.50
2022-10-09T18:39:53.451Z,100030.84
2022-10-09T18:42:21.930Z,100031.91
2022-10-09T18:44:52.051Z,100034.63
2022-10-09T18:47:41.744Z,100032.97
2022-10-09T18:50:13.884Z,100033.06
2022-10-09T18:52:44.110Z,100031.41
2022-10-09T18:55:16.120Z,100031.53
2022-10-09T18:57:46.536Z,100040.53
2022-10-09T19:00:16.936Z,100038.81
2022-10-09T19:02:45.302Z,100047.59
2022-10-09T19:05:14.728Z,100046.84
2022-10-09T19:07:43.595Z,100042.69
2022-10-09T19:10:12.736Z,100041.94
2022-10-09T19:12:42.731Z,100052.66
2022-10-09T19:15:12.420Z,100051.09
2022-10-09T19:17:42.447Z,100052.19
2022-10-09T19:20:11.483Z,100047.03
2022-10-09T19:22:40.374Z,100045.41
2022-10-09T19:25:09.523Z,100045.53
2022-10-09T19:27:38.703Z,100044.88
2022-10-09T19:30:08.598Z,100046.16
2022-10-09T19:32:37.028Z,100039.25
2022-10-09T19:35:08.328Z,100039.19
2022-10-09T19:40:06.749Z,100041.38
2022-10-09T19:42:35.424Z,100047.66
2022-10-09T19:45:24.131Z,100050.47
2022-10-09T19:47:54.293Z,100049.69
2022-10-09T19:50:24.863Z,100048.03
2022-10-09T19:52:53.724Z,100048.31
2022-10-09T19:55:22.350Z,100053.75
2022-10-09T19:57:51.425Z,100059.19
2022-10-09T20:00:20.480Z,100052.94
2022-10-09T20:02:49.328Z,100056.56
2022-10-09T20:05:18.186Z,100053.97
2022-10-09T20:07:47.943Z,100060.09
2022-10-09T20:10:17.202Z,100055.78
2022-10-09T20:12:45.745Z,100051.38
2022-10-09T20:15:14.495Z,100054.78
2022-10-09T20:17:43.337Z,100049.47
2022-10-09T20:20:12.309Z,100053.00
2022-10-09T20:22:40.945Z,100051.09
2022-10-09T20:25:11.150Z,100052.00
2022-10-09T20:27:39.764Z,100053.22
2022-10-09T20:30:09.736Z,100056.94
2022-10-09T20:32:38.222Z,100060.41
2022-10-09T20:35:07.786Z,100057.75
2022-10-09T20:37:36.347Z,100053.16
2022-10-09T20:40:06.544Z,100053.22
2022-10-09T20:42:36.730Z,100052.50
2022-10-09T20:45:06.669Z,100053.53
2022-10-09T20:47:35.598Z,100053.66
2022-10-09T20:50:04.748Z,100058.88
2022-10-09T20:52:33.333Z,100054.47
2022-10-09T20:55:02.159Z,100056.16
2022-10-09T20:57:30.897Z,100046.50
2022-10-09T21:00:01.332Z,100053.56
2022-10-09T21:02:30.297Z,100047.41
2022-10-09T21:04:58.985Z,100040.53
2022-10-09T21:07:27.672Z,100035.63
2022-10-09T21:09:56.461Z,100038.13
2022-10-09T21:12:24.826Z,100036.31
2022-10-09T21:14:53.520Z,100033.84
2022-10-09T21:17:23.403Z,100038.94
2022-10-09T21:19:52.026Z,100043.66
2022-10-09T21:22:20.519Z,100038.91
2022-10-09T21:24:49.432Z,100036.28
2022-10-09T21:27:17.875Z,100037.34
2022-10-09T21:29:46.735Z,100038.94
2022-10-09T21:32:15.274Z,100037.84
2022-10-09T21:34:45.813Z,100043.16
2022-10-09T21:37:22.632Z,100048.91
2022-10-09T21:39:51.365Z,100051.63
2022-10-09T21:42:19.923Z,100051.41
2022-10-09T21:44:48.712Z,100051.34
2022-10-09T21:47:19.255Z,100060.28
2022-10-09T21:49:49.779Z,100061.28
2022-10-09T21:52:18.673Z,100061.06
2022-10-09T21:54:47.270Z,100049.44
2022-10-09T21:57:15.840Z,100046.63
2022-10-09T21:59:44.406Z,100051.94
2022-10-09T22:02:13.161Z,100047.69
2022-10-09T22:04:41.581Z,100045.75
2022-10-09T22:07:11.413Z,100042.16
2022-10-09T22:09:40.137Z,100046.50
2022-10-09T22:12:08.727Z,100049.13
2022-10-09T22:14:37.356Z,100055.34
2022-10-09T22:17:06.306Z,100059.00
2022-10-09T22:19:34.727Z,100054.63
2022-10-09T22:22:03.341Z,100052.91
2022-10-09T22:24:33.196Z,100044.03
2022-10-09T22:27:01.959Z,100046.75
2022-10-09T22:29:31.183Z,100048.44
2022-10-09T22:32:00.373Z,100043.22
2022-10-09T22:34:28.878Z,100056.41
2022-10-09T22:36:57.525Z,100050.31
2022-10-09T22:39:25.953Z,100049.41
2022-10-09T22:41:55.984Z,100046.84
2022-10-09T22:44:24.447Z,100043.94
2022-10-09T22:46:53.583Z,100046.81
2022-10-09T22:49:22.078Z,100060.69
2022-10-09T22:51:50.527Z,100051.75
2022-10-09T22:54:20.085Z,100048.91
2022-10-09T22:56:48.642Z,100049.19
2022-10-09T22:59:19.758Z,100048.25
2022-10-09T23:01:51.449Z,100043.66
2022-10-09T23:04:21.440Z,100044.53
2022-10-09T23:06:51.512Z,100049.81
2022-10-09T23:09:20.975Z,100051.59
2022-10-09T23:11:49.754Z,100059.13
2022-10-09T23:14:19.884Z,100044.84
2022-10-09T23:16:48.923Z,100046.47
2022-10-09T23:19:18.102Z,100052.63
2022-10-09T23:21:47.807Z,100050.91
2022-10-09T23:24:17.863Z,100045.47
2022-10-09T23:26:47.516Z,100046.25
2022-10-09T23:29:18.758Z,100044.63
2022-10-09T23:31:49.376Z,100043.19
2022-10-09T23:34:18.051Z,100052.22
2022-10-09T23:36:46.481Z,100051.16
2022-10-09T23:39:15.141Z,100046.78
2022-10-09T23:41:43.527Z,100052.13
2022-10-09T23:44:12.326Z,100052.72
2022-10-09T23:46:40.742Z,100059.91
2022-10-09T23:49:11.351Z,100065.38
2022-10-09T23:51:39.790Z,100059.25
2022-10-09T23:54:08.415Z,100047.00
2022-10-09T23:56:38.100Z,100050.44
2022-10-09T23:59:07.625Z,100067.13
